Time;durP1;ratioP1;P1;durP2;ratioP2;P2;SDS_P1;SDS_P2;PMS_P1;PMS_P2;Temp;Humidity;BMP_temperature;BMP_pressure;BME280_temperature;BME280_humidity;BME280_pressure;Samples;Min_cycle;Max_cycle;Signal;HPM_P1;HPM_P2
2023/10/03 00:02:20;;;;;;;26.57;12.00;;;;;;;;;;6081785;23;20378;-91
2023/10/03 00:04:48;;;;;;;23.73;12.60;;;;;;;;;;6085724;23;20429;-91
2023/10/03 00:07:14;;;;;;;23.50;12.77;;;;;;;;;;6137619;23;20400;-90
2023/10/03 00:09:41;;;;;;;25.93;12.40;;;;;;;;;;6171748;23;20375;-91
2023/10/03 00:12:08;;;;;;;20.37;11.47;;;;;;;;;;6139853;23;20396;-91
2023/10/03 00:14:34;;;;;;;23.57;11.30;;;;;;;;;;6141798;23;20391;-91
2023/10/03 00:17:00;;;;;;;21.97;10.67;;;;;;;;;;6164552;23;20367;-91
2023/10/03 00:19:26;;;;;;;14.60;9.70;;;;;;;;;;6196088;23;20442;-91
2023/10/03 00:21:52;;;;;;;18.83;10.10;;;;;;;;;;6201785;23;20512;-92
2023/10/03 00:24:19;;;;;;;21.00;10.63;;;;;;;;;;6201970;23;20440;-91
2023/10/03 00:26:45;;;;;;;22.80;11.63;;;;;;;;;;6225762;23;20369;-90
2023/10/03 00:29:13;;;;;;;20.70;10.70;;;;;;;;;;6204548;23;20769;-91
2023/10/03 00:31:40;;;;;;;19.67;11.00;;;;;;;;;;6201898;23;20496;-90
2023/10/03 00:34:06;;;;;;;24.97;11.07;;;;;;;;;;6231560;23;20398;-91
2023/10/03 00:36:32;;;;;;;20.43;12.97;;;;;;;;;;6201703;23;20733;-91
2023/10/03 00:38:58;;;;;;;22.20;12.23;;;;;;;;;;6209146;23;20354;-90
2023/10/03 00:41:25;;;;;;;21.20;10.53;;;;;;;;;;6208052;23;20371;-91
2023/10/03 00:43:56;;;;;;;19.20;10.30;;;;;;;;;;6202452;23;20373;-91
2023/10/03 00:46:22;;;;;;;23.20;9.90;;;;;;;;;;6203539;23;20423;-90
2023/10/03 00:48:48;;;;;;;23.67;12.10;;;;;;;;;;6202519;23;20914;-91
2023/10/03 00:51:15;;;;;;;20.50;11.43;;;;;;;;;;6206103;23;20793;-91
2023/10/03 00:53:43;;;;;;;22.27;11.10;;;;;;;;;;6201824;23;20439;-90
2023/10/03 00:56:12;;;;;;;18.67;10.60;;;;;;;;;;6203861;23;20449;-90
2023/10/03 00:58:40;;;;;;;29.20;11.53;;;;;;;;;;6202404;23;20377;-91
2023/10/03 01:01:09;;;;;;;20.93;11.30;;;;;;;;;;6206019;23;20421;-90
2023/10/03 01:03:38;;;;;;;21.23;11.07;;;;;;;;;;6202950;23;20390;-91
2023/10/03 01:06:09;;;;;;;20.93;10.40;;;;;;;;;;6231672;23;20425;-91
2023/10/03 01:08:36;;;;;;;25.43;11.53;;;;;;;;;;6255085;23;20378;-90
2023/10/03 01:11:05;;;;;;;24.47;11.00;;;;;;;;;;6209779;23;20444;-91
2023/10/03 01:13:32;;;;;;;19.57;12.10;;;;;;;;;;6204160;23;20373;-91
2023/10/03 01:15:58;;;;;;;25.50;12.13;;;;;;;;;;6207280;23;20385;-91
2023/10/03 01:18:27;;;;;;;21.30;11.83;;;;;;;;;;6225978;23;20700;-91
2023/10/03 01:21:00;;;;;;;23.03;11.83;;;;;;;;;;6207327;23;20405;-90
2023/10/03 01:23:33;;;;;;;23.17;11.50;;;;;;;;;;6203798;23;20740;-91
2023/10/03 01:25:59;;;;;;;23.07;10.70;;;;;;;;;;6202069;23;20413;-90
2023/10/03 01:28:25;;;;;;;19.37;11.67;;;;;;;;;;6202135;23;20524;-91
2023/10/03 01:30:51;;;;;;;20.13;11.93;;;;;;;;;;6204849;23;20409;-90
2023/10/03 01:33:17;;;;;;;20.30;11.13;;;;;;;;;;6203908;23;20451;-91
2023/10/03 01:35:43;;;;;;;20.97;9.40;;;;;;;;;;6204514;23;20398;-90
2023/10/03 01:38:09;;;;;;;23.73;11.03;;;;;;;;;;6200970;23;20673;-91
2023/10/03 01:40:35;;;;;;;22.50;11.20;;;;;;;;;;6202714;23;20405;-90
2023/10/03 01:43:02;;;;;;;22.53;12.10;;;;;;;;;;6203099;23;20409;-91
2023/10/03 01:45:32;;;;;;;17.97;10.00;;;;;;;;;;6202901;23;20494;-91
2023/10/03 01:47:59;;;;;;;20.70;9.97;;;;;;;;;;6211474;23;20402;-90
2023/10/03 01:50:25;;;;;;;21.23;9.80;;;;;;;;;;6200665;23;20378;-91
2023/10/03 01:52:52;;;;;;;20.80;10.10;;;;;;;;;;6203726;23;20434;-91
2023/10/03 01:55:18;;;;;;;24.07;11.30;;;;;;;;;;6198531;23;20448;-91
2023/10/03 01:57:45;;;;;;;22.87;10.40;;;;;;;;;;6199589;23;20413;-92
2023/10/03 02:00:21;;;;;;;21.40;11.20;;;;;;;;;;6200695;23;20378;-90
2023/10/03 02:02:48;;;;;;;15.33;9.30;;;;;;;;;;6207952;23;20735;-91
2023/10/03 02:05:15;;;;;;;25.90;12.47;;;;;;;;;;6201720;23;20426;-91
2023/10/03 02:07:41;;;;;;;24.77;11.53;;;;;;;;;;6203672;23;20405;-91
2023/10/03 02:10:07;;;;;;;22.07;10.23;;;;;;;;;;6202759;23;20389;-90
2023/10/03 02:12:33;;;;;;;20.57;9.60;;;;;;;;;;6207104;23;20362;-91
2023/10/03 02:15:07;;;;;;;19.23;8.80;;;;;;;;;;6200123;23;20386;-91
2023/10/03 02:22:45;;;;;;;21.47;9.90;;;;;;;;;;6289956;22;20524;-94
2023/10/03 02:25:11;;;;;;;20.53;10.70;;;;;;;;;;6233160;22;20896;-94
2023/10/03 02:27:37;;;;;;;20.63;10.83;;;;;;;;;;6233210;22;20392;-93
2023/10/03 02:30:08;;;;;;;19.97;9.57;;;;;;;;;;6234511;22;20384;-95
2023/10/03 02:32:35;;;;;;;21.33;9.90;;;;;;;;;;6234342;22;20373;-95
2023/10/03 02:35:01;;;;;;;18.20;9.77;;;;;;;;;;6234171;22;20417;-94
2023/10/03 02:37:26;;;;;;;19.93;9.40;;;;;;;;;;6237130;22;20435;-95
2023/10/03 02:39:53;;;;;;;20.30;9.23;;;;;;;;;;6233939;22;20613;-95
2023/10/03 02:42:19;;;;;;;20.57;9.10;;;;;;;;;;6233492;22;20460;-94
2023/10/03 02:44:45;;;;;;;20.67;11.27;;;;;;;;;;6231599;22;20429;-93
2023/10/03 02:47:12;;;;;;;16.27;9.20;;;;;;;;;;6238964;22;20549;-95
2023/10/03 02:49:38;;;;;;;27.20;10.20;;;;;;;;;;6233862;22;20413;-95
2023/10/03 02:52:05;;;;;;;21.27;9.83;;;;;;;;;;6235947;22;20381;-95
2023/10/03 02:54:32;;;;;;;16.47;8.60;;;;;;;;;;6233743;22;20365;-94
2023/10/03 02:56:58;;;;;;;17.13;9.30;;;;;;;;;;6235744;22;20357;-94
2023/10/03 02:59:25;;;;;;;15.20;8.67;;;;;;;;;;6259720;22;20373;-93
2023/10/03 03:01:52;;;;;;;19.70;9.90;;;;;;;;;;6233299;22;20421;-94
2023/10/03 03:04:21;;;;;;;18.27;9.10;;;;;;;;;;6232970;22;20374;-93
2023/10/03 03:06:47;;;;;;;19.73;9.13;;;;;;;;;;6233709;22;20383;-94
2023/10/03 03:09:18;;;;;;;18.57;9.00;;;;;;;;;;6233106;22;20377;-93
2023/10/03 03:11:50;;;;;;;23.43;11.23;;;;;;;;;;6233799;22;20429;-95
2023/10/03 03:14:18;;;;;;;18.23;9.30;;;;;;;;;;6259737;22;20378;-95
2023/10/03 03:16:50;;;;;;;20.70;10.50;;;;;;;;;;6235794;22;20385;-95
2023/10/03 03:19:33;;;;;;;16.67;8.23;;;;;;;;;;6217785;22;20368;-95
2023/10/03 03:22:04;;;;;;;15.67;8.90;;;;;;;;;;6237186;22;20429;-94
2023/10/03 03:24:34;;;;;;;16.77;7.70;;;;;;;;;;6233930;22;20437;-95
2023/10/03 03:27:00;;;;;;;16.80;8.53;;;;;;;;;;6234921;22;20396;-94
2023/10/03 03:29:35;;;;;;;17.50;8.90;;;;;;;;;;6242155;22;20394;-94
2023/10/03 03:32:04;;;;;;;15.30;7.40;;;;;;;;;;6261748;22;20373;-95
2023/10/03 03:34:31;;;;;;;16.60;8.63;;;;;;;;;;6235882;22;20354;-96
2023/10/03 03:37:15;;;;;;;16.17;8.37;;;;;;;;;;6235736;22;20393;-94
2023/10/03 03:42:39;;;;;;;16.00;7.60;;;;;;;;;;6199270;22;20381;-93
2023/10/03 03:45:06;;;;;;;16.00;8.07;;;;;;;;;;6235833;22;20397;-95
2023/10/03 03:47:33;;;;;;;13.70;7.00;;;;;;;;;;6234084;22;20390;-94
2023/10/03 03:50:10;;;;;;;13.53;7.87;;;;;;;;;;6240378;22;20365;-93
2023/10/03 03:52:36;;;;;;;14.10;7.00;;;;;;;;;;6236299;22;20404;-93
2023/10/03 03:55:04;;;;;;;12.63;6.97;;;;;;;;;;6233648;22;20389;-95
2023/10/03 03:57:29;;;;;;;11.97;6.73;;;;;;;;;;6236238;22;20869;-95
2023/10/03 03:59:56;;;;;;;13.33;7.63;;;;;;;;;;6236275;22;20381;-95
2023/10/03 04:02:23;;;;;;;15.53;6.60;;;;;;;;;;6236496;22;20379;-96
2023/10/03 04:04:49;;;;;;;9.37;6.43;;;;;;;;;;6235456;22;20504;-95
2023/10/03 04:07:16;;;;;;;12.40;6.63;;;;;;;;;;6234758;22;20459;-95
2023/10/03 04:09:42;;;;;;;15.70;7.27;;;;;;;;;;6235436;22;20390;-94
2023/10/03 04:12:08;;;;;;;15.53;7.53;;;;;;;;;;6235867;22;20365;-95
2023/10/03 04:14:34;;;;;;;10.33;6.53;;;;;;;;;;6234436;22;20387;-94
2023/10/03 04:17:00;;;;;;;16.10;7.60;;;;;;;;;;6258951;22;20384;-95
2023/10/03 04:19:26;;;;;;;12.33;6.27;;;;;;;;;;6232577;22;20373;-95
2023/10/03 04:21:52;;;;;;;10.67;7.27;;;;;;;;;;6236888;22;20396;-94
2023/10/03 04:24:19;;;;;;;10.70;6.37;;;;;;;;;;6231422;22;20398;-94
2023/10/03 04:26:53;;;;;;;13.63;6.93;;;;;;;;;;6235172;22;20506;-95
2023/10/03 04:29:19;;;;;;;12.87;7.70;;;;;;;;;;6234249;22;20400;-94
2023/10/03 04:31:46;;;;;;;11.87;6.40;;;;;;;;;;6233291;22;20400;-95
2023/10/03 04:34:15;;;;;;;9.77;5.83;;;;;;;;;;6233441;22;20389;-96
2023/10/03 04:36:41;;;;;;;12.43;6.07;;;;;;;;;;6233693;22;20393;-96
2023/10/03 04:39:08;;;;;;;12.23;6.10;;;;;;;;;;6231855;22;20365;-95
2023/10/03 04:41:34;;;;;;;11.73;7.00;;;;;;;;;;6235465;22;20382;-94
2023/10/03 04:44:02;;;;;;;11.57;7.03;;;;;;;;;;6230581;22;20385;-94
2023/10/03 04:46:28;;;;;;;10.03;6.40;;;;;;;;;;6234480;22;20434;-96
2023/10/03 04:48:54;;;;;;;8.93;6.33;;;;;;;;;;6233526;22;20382;-93
2023/10/03 04:51:20;;;;;;;11.30;6.73;;;;;;;;;;6235101;22;20396;-95
2023/10/03 04:53:46;;;;;;;9.33;6.37;;;;;;;;;;6233717;22;20735;-96
2023/10/03 04:56:12;;;;;;;10.90;6.47;;;;;;;;;;6241317;22;20397;-95
2023/10/03 04:58:41;;;;;;;8.57;6.03;;;;;;;;;;6190152;22;20479;-94
2023/10/03 05:01:07;;;;;;;8.57;4.93;;;;;;;;;;6235501;22;20384;-96
2023/10/03 05:03:33;;;;;;;14.53;6.40;;;;;;;;;;6235156;22;20460;-95
2023/10/03 05:06:01;;;;;;;11.17;6.27;;;;;;;;;;6237103;22;20445;-95
2023/10/03 05:08:27;;;;;;;8.27;5.00;;;;;;;;;;6235279;22;20377;-96
2023/10/03 05:10:54;;;;;;;10.80;5.73;;;;;;;;;;6237093;22;20381;-96
2023/10/03 05:13:20;;;;;;;10.17;5.83;;;;;;;;;;6236244;22;20382;-96
2023/10/03 05:15:46;;;;;;;7.57;5.40;;;;;;;;;;6236922;22;20468;-96
2023/10/03 05:18:13;;;;;;;10.03;5.50;;;;;;;;;;6239268;22;20394;-96
2023/10/03 05:20:40;;;;;;;10.47;5.90;;;;;;;;;;6237103;22;20411;-94
2023/10/03 05:23:06;;;;;;;6.77;5.00;;;;;;;;;;6235642;22;20401;-96
2023/10/03 05:25:36;;;;;;;9.30;5.23;;;;;;;;;;6237386;22;20496;-94
2023/10/03 05:28:10;;;;;;;7.33;5.23;;;;;;;;;;6264672;22;20362;-96
2023/10/03 05:30:38;;;;;;;9.30;6.43;;;;;;;;;;6240514;22;20377;-96
2023/10/03 05:33:07;;;;;;;8.67;5.37;;;;;;;;;;6236524;22;20412;-96
2023/10/03 05:35:33;;;;;;;8.83;4.97;;;;;;;;;;6238033;22;20403;-94
2023/10/03 05:37:59;;;;;;;10.40;6.67;;;;;;;;;;6235211;22;20396;-95
2023/10/03 05:40:26;;;;;;;8.13;5.37;;;;;;;;;;6238579;22;20444;-95
2023/10/03 05:42:52;;;;;;;9.37;5.80;;;;;;;;;;6237558;22;21148;-96
2023/10/03 05:45:20;;;;;;;8.73;5.50;;;;;;;;;;6171267;23;20441;-96
2023/10/03 05:47:46;;;;;;;8.93;5.80;;;;;;;;;;6145106;23;20384;-96
2023/10/03 05:50:16;;;;;;;9.67;5.97;;;;;;;;;;6146727;23;20380;-96
2023/10/03 05:52:44;;;;;;;9.20;5.43;;;;;;;;;;6149817;23;20522;-96
2023/10/03 05:55:10;;;;;;;7.73;5.53;;;;;;;;;;6151691;23;20396;-96
2023/10/03 05:57:41;;;;;;;11.13;6.80;;;;;;;;;;6149656;23;20444;-96
2023/10/03 06:00:10;;;;;;;9.03;5.70;;;;;;;;;;6120405;23;20838;-96
2023/10/03 06:02:38;;;;;;;10.50;6.80;;;;;;;;;;6091159;23;20503;-96
2023/10/03 06:05:07;;;;;;;7.63;5.30;;;;;;;;;;6115609;23;20422;-96
2023/10/03 06:07:36;;;;;;;7.10;4.83;;;;;;;;;;6141904;23;20445;-94
2023/10/03 06:10:04;;;;;;;11.57;5.60;;;;;;;;;;6088908;23;20480;-94
2023/10/03 06:12:34;;;;;;;9.20;4.70;;;;;;;;;;6092194;23;20393;-96
2023/10/03 06:15:00;;;;;;;6.80;5.10;;;;;;;;;;6085874;23;20386;-96
2023/10/03 06:17:27;;;;;;;8.30;4.97;;;;;;;;;;6176616;23;20447;-96
2023/10/03 06:19:53;;;;;;;7.47;5.10;;;;;;;;;;6175510;23;20434;-95
2023/10/03 06:22:19;;;;;;;10.87;6.20;;;;;;;;;;6179212;23;20383;-95
2023/10/03 06:24:45;;;;;;;8.50;5.57;;;;;;;;;;6177360;23;20415;-96
2023/10/03 06:27:11;;;;;;;10.07;6.23;;;;;;;;;;6178869;23;20376;-96
2023/10/03 06:29:40;;;;;;;9.17;5.10;;;;;;;;;;6175935;23;20477;-95
2023/10/03 06:32:26;;;;;;;9.77;5.40;;;;;;;;;;6180361;23;20391;-95
2023/10/03 06:35:16;;;;;;;9.20;6.30;;;;;;;;;;6236761;22;20418;-96
2023/10/03 06:40:18;;;;;;;8.50;4.40;;;;;;;;;;6261975;22;20445;-96
2023/10/03 06:42:47;;;;;;;9.47;5.70;;;;;;;;;;6211858;23;20358;-95
2023/10/03 06:45:21;;;;;;;8.27;5.10;;;;;;;;;;6263765;23;20449;-95
2023/10/03 06:47:47;;;;;;;8.17;5.07;;;;;;;;;;6210054;23;20461;-94
2023/10/03 06:50:24;;;;;;;8.30;5.30;;;;;;;;;;6213582;23;20442;-96
2023/10/03 06:52:52;;;;;;;8.00;5.40;;;;;;;;;;6217131;23;20423;-96
2023/10/03 06:55:31;;;;;;;8.77;5.27;;;;;;;;;;6270409;22;20382;-94
2023/10/03 07:05:45;;;;;;;7.33;4.30;;;;;;;;;;6242169;22;20470;-95
2023/10/03 07:08:32;;;;;;;7.27;3.97;;;;;;;;;;6171634;23;20385;-95
2023/10/03 07:10:59;;;;;;;9.80;5.13;;;;;;;;;;6030292;23;20401;-96
2023/10/03 07:13:26;;;;;;;9.10;5.20;;;;;;;;;;6002276;23;20398;-94
2023/10/03 07:15:52;;;;;;;7.90;4.53;;;;;;;;;;6028834;23;20390;-93
2023/10/03 07:18:22;;;;;;;7.00;4.57;;;;;;;;;;6157132;22;20446;-95
2023/10/03 07:20:49;;;;;;;8.33;4.53;;;;;;;;;;6256390;22;20474;-95
2023/10/03 07:23:19;;;;;;;10.03;5.07;;;;;;;;;;6233805;23;20398;-93
2023/10/03 07:25:54;;;;;;;5.40;4.27;;;;;;;;;;6237598;23;20419;-96
2023/10/03 07:44:04;;;;;;;6.83;4.40;;;;;;;;;;6249758;22;20442;-95
2023/10/03 07:46:31;;;;;;;6.67;4.97;;;;;;;;;;6217906;23;20461;-94
2023/10/03 07:48:58;;;;;;;9.60;4.57;;;;;;;;;;6216186;23;20394;-95
2023/10/03 07:51:29;;;;;;;6.67;5.00;;;;;;;;;;6216804;23;20413;-96
2023/10/03 07:53:56;;;;;;;6.00;4.17;;;;;;;;;;6242428;23;20438;-95
2023/10/03 08:01:38;;;;;;;7.57;4.90;;;;;;;;;;6256880;22;20442;-96
2023/10/03 08:04:14;;;;;;;8.40;5.30;;;;;;;;;;6218256;22;20394;-96
2023/10/03 08:09:17;;;;;;;9.20;4.70;;;;;;;;;;6287742;22;20895;-95
2023/10/03 08:11:46;;;;;;;7.30;5.40;;;;;;;;;;6246047;22;20393;-96
2023/10/03 08:14:17;;;;;;;7.77;5.30;;;;;;;;;;6239031;22;20377;-95
2023/10/03 08:16:44;;;;;;;6.40;4.97;;;;;;;;;;6263063;22;20381;-95
2023/10/03 08:19:26;;;;;;;6.37;5.13;;;;;;;;;;6234388;22;20407;-95
2023/10/03 08:21:53;;;;;;;6.50;4.70;;;;;;;;;;6239948;22;20362;-94
2023/10/03 08:24:24;;;;;;;6.43;5.37;;;;;;;;;;6239430;22;20350;-95
2023/10/03 08:26:51;;;;;;;6.07;3.77;;;;;;;;;;6245389;22;20408;-96
2023/10/03 08:29:23;;;;;;;8.10;4.60;;;;;;;;;;6265778;22;21218;-96
2023/10/03 08:31:59;;;;;;;7.47;4.50;;;;;;;;;;6235899;22;20388;-94
2023/10/03 08:34:26;;;;;;;5.37;4.53;;;;;;;;;;6237460;22;20379;-95
2023/10/03 08:36:54;;;;;;;7.40;5.03;;;;;;;;;;6238907;22;20440;-93
2023/10/03 08:39:24;;;;;;;5.77;4.73;;;;;;;;;;6235821;22;20377;-94
2023/10/03 08:41:59;;;;;;;8.37;5.03;;;;;;;;;;6238955;22;20455;-95
2023/10/03 08:44:25;;;;;;;8.63;6.33;;;;;;;;;;6234549;22;21036;-94
2023/10/03 08:46:55;;;;;;;6.53;4.63;;;;;;;;;;6235661;22;21300;-95
2023/10/03 08:49:25;;;;;;;8.20;5.30;;;;;;;;;;6244746;22;20382;-95
2023/10/03 08:51:52;;;;;;;8.93;6.20;;;;;;;;;;6269585;22;20397;-94
2023/10/03 08:54:23;;;;;;;11.03;4.40;;;;;;;;;;6206607;23;20359;-96
2023/10/03 08:56:55;;;;;;;6.57;5.30;;;;;;;;;;6204569;23;20383;-95
2023/10/03 09:20:31;;;;;;;6.50;4.83;;;;;;;;;;6252942;22;20425;-96
2023/10/03 09:23:06;;;;;;;8.30;5.00;;;;;;;;;;6221900;22;20448;-96
2023/10/03 09:25:33;;;;;;;8.20;4.60;;;;;;;;;;6240897;23;20410;-95
2023/10/03 09:28:05;;;;;;;9.10;5.23;;;;;;;;;;6212928;23;20362;-96
2023/10/03 09:30:39;;;;;;;7.30;5.10;;;;;;;;;;6209914;23;20373;-95
2023/10/03 09:33:09;;;;;;;5.90;5.13;;;;;;;;;;6214055;22;20362;-96
2023/10/03 09:35:40;;;;;;;7.07;4.70;;;;;;;;;;6241218;23;20374;-95
2023/10/03 09:48:29;;;;;;;7.90;4.80;;;;;;;;;;6264007;22;20449;-95
2023/10/03 09:51:05;;;;;;;6.17;4.30;;;;;;;;;;6214555;23;20429;-94
2023/10/03 09:53:33;;;;;;;6.80;4.20;;;;;;;;;;6219119;22;20437;-94
2023/10/03 10:24:48;;;;;;;7.90;5.40;;;;;;;;;;6269666;22;20416;-96
2023/10/03 10:58:28;;;;;;;11.10;5.60;;;;;;;;;;6294692;22;20424;-95
2023/10/03 11:13:59;;;;;;;8.63;5.60;;;;;;;;;;6237661;22;20445;-96
2023/10/03 11:16:26;;;;;;;5.07;4.57;;;;;;;;;;6241451;23;20350;-93
2023/10/03 11:18:54;;;;;;;6.13;5.20;;;;;;;;;;6213847;23;20461;-93
2023/10/03 11:21:21;;;;;;;6.80;5.67;;;;;;;;;;6217537;23;20450;-94
2023/10/03 11:24:05;;;;;;;7.17;5.50;;;;;;;;;;6238905;23;20453;-94
2023/10/03 11:26:45;;;;;;;8.83;5.37;;;;;;;;;;6241337;23;20437;-93
2023/10/03 11:29:14;;;;;;;7.10;5.17;;;;;;;;;;6214334;23;20389;-94
2023/10/03 11:31:45;;;;;;;6.70;5.60;;;;;;;;;;6214726;23;20378;-94
2023/10/03 11:34:16;;;;;;;12.23;4.87;;;;;;;;;;6213827;23;20386;-95
2023/10/03 11:36:43;;;;;;;5.63;5.00;;;;;;;;;;6214455;23;20401;-94
2023/10/03 11:39:13;;;;;;;6.13;5.40;;;;;;;;;;6215259;23;20378;-94
2023/10/03 11:41:39;;;;;;;6.60;5.10;;;;;;;;;;6214482;23;20378;-92
2023/10/03 11:44:16;;;;;;;6.63;5.60;;;;;;;;;;6213612;23;20414;-94
2023/10/03 11:46:46;;;;;;;7.30;6.47;;;;;;;;;;6213682;23;20422;-94
2023/10/03 11:49:15;;;;;;;11.07;5.90;;;;;;;;;;6216503;23;20378;-95
2023/10/03 11:51:43;;;;;;;6.83;5.90;;;;;;;;;;6213366;23;20762;-95
2023/10/03 11:54:09;;;;;;;6.77;5.00;;;;;;;;;;6219589;23;20410;-95
2023/10/03 11:56:48;;;;;;;10.97;6.33;;;;;;;;;;6241025;23;20367;-94
2023/10/03 11:59:15;;;;;;;10.43;5.23;;;;;;;;;;6218600;23;20369;-93
2023/10/03 13:35:13;;;;;;;7.50;6.60;;;;;;;;;;6224682;22;20432;-94
2023/10/03 13:38:15;;;;;;;7.60;6.53;;;;;;;;;;6219580;23;20402;-96
2023/10/03 15:07:05;;;;;;;6.73;5.30;;;;;;;;;;6265485;22;20464;-95
2023/10/03 15:09:32;;;;;;;7.57;4.37;;;;;;;;;;6215717;23;20406;-96
2023/10/03 15:12:04;;;;;;;8.10;4.83;;;;;;;;;;6215592;23;20378;-96
2023/10/03 15:17:14;;;;;;;6.63;4.80;;;;;;;;;;6250505;22;20434;-96
2023/10/03 15:19:41;;;;;;;6.20;4.57;;;;;;;;;;6238661;23;20476;-96
2023/10/03 15:22:13;;;;;;;7.40;4.40;;;;;;;;;;6211232;23;20382;-96
2023/10/03 15:32:27;;;;;;;7.60;4.20;;;;;;;;;;6254407;22;20496;-94
2023/10/03 15:34:53;;;;;;;6.23;4.67;;;;;;;;;;6217911;23;20414;-93
2023/10/03 15:37:23;;;;;;;5.53;3.60;;;;;;;;;;6213772;22;20405;-95
2023/10/03 15:39:51;;;;;;;7.23;4.27;;;;;;;;;;6211410;22;20381;-94
2023/10/03 15:42:21;;;;;;;6.47;4.67;;;;;;;;;;6242669;23;20362;-95
2023/10/03 15:44:49;;;;;;;3.90;3.23;;;;;;;;;;6234126;23;20386;-95
2023/10/03 15:47:16;;;;;;;4.80;3.40;;;;;;;;;;6177601;23;20913;-96
2023/10/03 15:49:49;;;;;;;7.30;3.70;;;;;;;;;;6156687;23;20400;-96
2023/10/03 15:52:18;;;;;;;5.13;3.13;;;;;;;;;;6156518;23;20399;-96
2023/10/03 15:54:45;;;;;;;4.30;3.07;;;;;;;;;;6152746;23;20391;-96
2023/10/03 15:57:14;;;;;;;3.60;3.00;;;;;;;;;;6176024;23;20396;-95
2023/10/03 16:00:05;;;;;;;12.40;3.33;;;;;;;;;;6153654;23;20396;-96
2023/10/03 16:07:47;;;;;;;3.10;1.03;;;;;;;;;;6217465;22;20442;-94
2023/10/03 17:55:38;;;;;;;2.03;1.20;;;;;;;;;;6271224;22;20434;-94
2023/10/03 18:03:32;;;;;;;4.80;1.97;;;;;;;;;;6263227;22;20425;-96
